Aviation Digital Data Service (ADDS)

Output produced by METARs form (0855 UTC 23 July 2019)
found at http://www.aviationweather.gov/metar/data/
 
Forecast for: LFSI (ST. DIZIER/ROBIN, FR)
Text: TAF LFSI 230800Z 2309/2409 VRB05KT CAVOK
Forecast period: 0900 UTC 23 July 2019 to 0900 UTC 24 July 2019
Forecast type: FROM: standard forecast or significant change
Winds: variable direction winds at 6 MPH (5 knots; 2.6 m/s)
Visibility: 6 or more miles 10+ km)
Ceiling: unknown
Clouds: missing
Weather: NSW  (no significant weather)